createdAt,value
2022-12-22T00:01:50.432Z,10.29
2022-12-22T00:05:11.187Z,10.23
2022-12-22T00:08:32.962Z,10.19
2022-12-22T00:11:53.143Z,10.16
2022-12-22T00:15:13.338Z,10.13
2022-12-22T00:18:35.019Z,10.13
2022-12-22T00:21:55.331Z,10.17
2022-12-22T00:25:16.949Z,10.14
2022-12-22T00:28:37.405Z,10.13
2022-12-22T00:31:58.791Z,10.07
2022-12-22T00:35:19.995Z,10.02
2022-12-22T00:38:40.214Z,9.95
2022-12-22T00:42:01.948Z,9.90
2022-12-22T00:45:22.456Z,9.89
2022-12-22T00:48:45.334Z,9.89
2022-12-22T00:52:06.151Z,9.87
2022-12-22T00:55:32.490Z,9.85
2022-12-22T00:58:55.183Z,9.80
2022-12-22T01:02:15.907Z,9.78
2022-12-22T01:05:36.579Z,9.79
2022-12-22T01:08:57.231Z,9.76
2022-12-22T01:12:17.587Z,9.86
2022-12-22T01:15:39.629Z,9.84
2022-12-22T01:19:00.662Z,9.84
2022-12-22T01:22:20.918Z,9.83
2022-12-22T01:25:41.500Z,9.82
2022-12-22T01:29:02.012Z,9.81
2022-12-22T01:32:24.331Z,9.84
2022-12-22T01:35:46.928Z,9.85
2022-12-22T01:39:07.362Z,9.85
2022-12-22T01:42:30.580Z,9.87
2022-12-22T01:45:54.058Z,9.85
2022-12-22T01:49:15.798Z,9.91
2022-12-22T01:52:38.767Z,9.92
2022-12-22T01:55:59.006Z,9.84
2022-12-22T01:59:22.649Z,9.80
2022-12-22T02:02:45.048Z,9.80
2022-12-22T02:06:16.743Z,9.80
2022-12-22T02:09:49.327Z,9.80
2022-12-22T02:13:19.179Z,9.79
2022-12-22T02:16:49.417Z,9.79
2022-12-22T02:20:33.691Z,9.82
2022-12-22T02:24:14.997Z,9.85
2022-12-22T02:27:37.467Z,9.88
2022-12-22T02:30:58.889Z,9.91
2022-12-22T02:34:19.246Z,9.90
2022-12-22T02:37:48.422Z,9.87
2022-12-22T02:41:16.143Z,9.86
2022-12-22T02:44:55.964Z,9.84
2022-12-22T02:48:23.012Z,9.83
2022-12-22T02:51:47.679Z,9.80
2022-12-22T02:55:08.295Z,9.80
2022-12-22T02:58:30.629Z,9.88
2022-12-22T03:01:52.769Z,9.87
2022-12-22T03:05:13.316Z,9.88
2022-12-22T03:08:33.951Z,9.86
2022-12-22T03:11:54.274Z,9.88
2022-12-22T03:15:14.472Z,9.87
2022-12-22T03:18:35.920Z,9.88
2022-12-22T03:21:56.410Z,9.90
2022-12-22T03:25:17.010Z,9.96
2022-12-22T03:28:19.300Z,9.97
2022-12-22T03:31:21.127Z,9.94
2022-12-22T03:34:24.322Z,9.95
2022-12-22T03:37:26.030Z,9.96
2022-12-22T03:40:27.803Z,10.01
2022-12-22T03:43:48.935Z,10.02
2022-12-22T03:46:50.623Z,10.06
2022-12-22T03:49:53.675Z,10.06
2022-12-22T03:52:55.358Z,10.02
2022-12-22T03:55:58.369Z,10.03
2022-12-22T03:59:01.895Z,10.09
2022-12-22T04:02:03.705Z,10.10
2022-12-22T04:05:08.233Z,10.07
2022-12-22T04:08:09.977Z,10.12
2022-12-22T04:11:31.332Z,10.17
2022-12-22T04:14:34.743Z,10.21
2022-12-22T04:17:36.546Z,10.24
2022-12-22T04:20:39.669Z,10.25
2022-12-22T04:23:41.507Z,10.23
2022-12-22T04:26:43.353Z,10.19
2022-12-22T04:29:45.009Z,10.18
2022-12-22T04:32:46.785Z,10.22
2022-12-22T04:35:49.839Z,10.23
2022-12-22T04:38:51.537Z,10.22
2022-12-22T04:41:53.242Z,10.19
2022-12-22T04:44:54.887Z,10.10
2022-12-22T04:47:56.603Z,10.11
2022-12-22T04:51:00.699Z,10.12
2022-12-22T04:54:02.412Z,10.18
2022-12-22T04:57:04.356Z,10.14
2022-12-22T05:00:07.725Z,10.14
2022-12-22T05:03:09.735Z,10.09
2022-12-22T05:06:13.208Z,10.10
2022-12-22T05:09:14.985Z,10.02
2022-12-22T05:12:35.161Z,10.02
2022-12-22T05:15:37.473Z,10.01
2022-12-22T05:18:40.674Z,9.97
2022-12-22T05:21:43.843Z,9.96
2022-12-22T05:24:45.484Z,9.91
2022-12-22T05:27:49.693Z,9.90
2022-12-22T05:30:51.641Z,9.87
2022-12-22T05:33:53.498Z,9.85
2022-12-22T05:36:56.739Z,9.90
2022-12-22T05:39:58.522Z,9.88
2022-12-22T05:43:00.243Z,9.90
2022-12-22T05:46:03.350Z,9.95
2022-12-22T05:49:05.057Z,9.94
2022-12-22T05:52:08.106Z,9.95
2022-12-22T05:55:10.516Z,10.00
2022-12-22T05:58:12.217Z,10.04
2022-12-22T06:01:13.943Z,10.05
2022-12-22T06:04:15.796Z,10.09
2022-12-22T06:07:19.623Z,10.11
2022-12-22T06:10:21.467Z,10.11
2022-12-22T06:13:23.206Z,10.11
2022-12-22T06:16:24.989Z,10.18
2022-12-22T06:19:26.725Z,10.19
2022-12-22T06:22:29.827Z,10.14
2022-12-22T06:25:31.580Z,10.17
2022-12-22T06:28:33.373Z,10.22
2022-12-22T06:31:35.179Z,10.24
2022-12-22T06:34:36.946Z,10.26
2022-12-22T06:37:40.039Z,10.29
2022-12-22T06:40:41.847Z,10.33
2022-12-22T06:43:43.563Z,10.33
2022-12-22T06:46:45.354Z,10.31
2022-12-22T06:49:47.108Z,10.29
2022-12-22T06:52:50.098Z,10.27
2022-12-22T06:55:51.830Z,10.27
2022-12-22T06:58:53.576Z,10.27
2022-12-22T07:01:55.412Z,10.29
2022-12-22T07:04:57.176Z,10.28
2022-12-22T07:08:07.765Z,10.36
2022-12-22T07:11:10.665Z,10.30
2022-12-22T07:14:12.534Z,10.25
2022-12-22T07:17:14.149Z,10.22
2022-12-22T07:20:15.899Z,10.21
2022-12-22T07:23:18.963Z,10.24
2022-12-22T07:26:20.619Z,10.30
2022-12-22T07:29:23.355Z,10.28
2022-12-22T07:32:25.044Z,10.27
2022-12-22T07:35:26.771Z,10.32
2022-12-22T07:38:31.590Z,10.34
2022-12-22T07:41:52.114Z,10.34
2022-12-22T07:44:53.928Z,10.27
2022-12-22T07:47:59.340Z,10.29
2022-12-22T07:51:04.486Z,10.28
2022-12-22T07:54:09.167Z,10.30
2022-12-22T07:57:10.881Z,10.35
2022-12-22T08:00:14.066Z,10.36
2022-12-22T08:03:16.157Z,10.34
2022-12-22T08:06:18.218Z,10.23
2022-12-22T08:09:22.851Z,10.31
2022-12-22T08:12:27.770Z,10.41
2022-12-22T08:15:29.377Z,10.41
2022-12-22T08:18:31.339Z,10.46
2022-12-22T08:21:33.126Z,10.50
2022-12-22T08:24:36.247Z,10.50
2022-12-22T08:27:43.946Z,10.57
2022-12-22T08:30:46.636Z,10.56
2022-12-22T08:33:48.735Z,10.68
2022-12-22T08:36:55.361Z,10.72
2022-12-22T08:40:02.873Z,10.81
2022-12-22T08:43:07.880Z,10.84
2022-12-22T08:46:09.607Z,10.94
2022-12-22T08:49:11.452Z,10.93
2022-12-22T08:52:18.412Z,10.90
2022-12-22T08:55:22.197Z,10.83
2022-12-22T08:58:23.855Z,10.76
2022-12-22T09:01:25.689Z,10.90
2022-12-22T09:04:27.438Z,10.85
2022-12-22T09:07:29.801Z,10.82
2022-12-22T09:10:32.922Z,10.80
2022-12-22T09:13:34.657Z,10.86
2022-12-22T09:16:36.930Z,10.83
2022-12-22T09:19:38.645Z,10.91
2022-12-22T09:22:40.504Z,10.95
2022-12-22T09:25:43.750Z,10.98
2022-12-22T09:28:50.104Z,11.01
2022-12-22T09:31:52.558Z,11.03
2022-12-22T09:34:54.355Z,11.06
2022-12-22T09:37:56.023Z,11.07
2022-12-22T09:40:59.191Z,11.05
2022-12-22T09:44:04.009Z,11.11
2022-12-22T09:47:18.939Z,11.02
2022-12-22T09:50:25.960Z,11.02
2022-12-22T09:53:27.640Z,11.09
2022-12-22T09:56:30.890Z,11.18
2022-12-22T09:59:32.701Z,11.15
2022-12-22T10:02:44.102Z,11.03
2022-12-22T10:05:53.901Z,10.90
2022-12-22T10:08:55.708Z,10.90
2022-12-22T10:12:00.643Z,10.91
2022-12-22T10:15:02.185Z,10.94
2022-12-22T10:18:12.203Z,10.85
2022-12-22T10:21:14.971Z,10.77
2022-12-22T10:24:25.704Z,10.74
2022-12-22T10:27:32.456Z,10.80
2022-12-22T10:30:36.609Z,10.85
2022-12-22T10:33:46.228Z,10.95
2022-12-22T10:36:50.852Z,11.15
2022-12-22T10:39:52.516Z,11.15
2022-12-22T10:42:56.287Z,11.21
2022-12-22T10:45:58.700Z,11.42
2022-12-22T10:49:13.195Z,11.48
2022-12-22T10:52:18.390Z,11.52
2022-12-22T10:55:25.795Z,11.60
2022-12-22T10:58:29.030Z,11.57
2022-12-22T11:01:33.677Z,11.59
2022-12-22T11:04:35.687Z,11.65
2022-12-22T11:07:39.478Z,11.54
2022-12-22T11:10:46.612Z,11.53
2022-12-22T11:14:01.278Z,11.43
2022-12-22T11:17:12.689Z,11.47
2022-12-22T11:20:37.247Z,11.60
2022-12-22T11:23:46.735Z,11.65
2022-12-22T11:26:59.660Z,11.64
2022-12-22T11:30:10.072Z,11.65
2022-12-22T11:33:25.817Z,11.63
2022-12-22T11:36:39.662Z,11.65
2022-12-22T11:39:47.944Z,11.70
2022-12-22T11:43:03.748Z,11.62
2022-12-22T11:46:21.179Z,11.63
2022-12-22T11:49:38.601Z,11.48
2022-12-22T11:52:55.796Z,11.59
2022-12-22T11:56:15.929Z,11.51
2022-12-22T11:59:41.538Z,11.55
2022-12-22T12:03:28.204Z,11.43
2022-12-22T12:06:45.469Z,11.59
2022-12-22T12:09:53.161Z,11.55
2022-12-22T12:13:05.323Z,11.43
2022-12-22T12:16:14.279Z,11.54
2022-12-22T12:19:36.083Z,11.47
2022-12-22T12:22:51.037Z,11.46
2022-12-22T12:26:00.328Z,11.36
2022-12-22T12:29:13.807Z,11.43
2022-12-22T12:32:21.418Z,11.45
2022-12-22T12:35:43.158Z,11.44
2022-12-22T12:39:07.652Z,11.39
2022-12-22T12:42:21.903Z,11.36
2022-12-22T12:45:34.836Z,11.45
2022-12-22T12:48:40.146Z,11.35
2022-12-22T12:51:47.337Z,11.44
2022-12-22T12:54:51.911Z,11.45
2022-12-22T12:57:53.762Z,11.44
2022-12-22T13:00:58.800Z,11.44
2022-12-22T13:04:04.159Z,11.45
2022-12-22T13:07:06.665Z,11.44
2022-12-22T13:10:19.256Z,11.39
2022-12-22T13:13:50.473Z,11.51
2022-12-22T13:17:32.597Z,11.48
2022-12-22T13:20:36.813Z,11.53
2022-12-22T13:24:14.491Z,11.49
2022-12-22T13:27:07.175Z,11.32
2022-12-22T13:30:14.773Z,11.30
2022-12-22T13:33:20.895Z,11.19
2022-12-22T13:36:27.846Z,11.12
2022-12-22T13:39:29.605Z,11.23
2022-12-22T13:42:35.552Z,11.23
2022-12-22T13:45:39.941Z,11.19
2022-12-22T13:48:45.426Z,11.22
2022-12-22T13:51:47.960Z,11.13
2022-12-22T13:54:50.056Z,10.97
2022-12-22T13:57:58.438Z,10.92
2022-12-22T14:01:02.564Z,11.00
2022-12-22T14:04:07.882Z,11.13
2022-12-22T14:07:10.916Z,11.13
2022-12-22T14:10:12.834Z,11.19
2022-12-22T14:13:19.451Z,11.09
2022-12-22T14:16:21.264Z,11.15
2022-12-22T14:19:24.695Z,11.02
2022-12-22T14:22:29.181Z,11.27
2022-12-22T14:25:33.803Z,11.17
2022-12-22T14:28:43.162Z,11.19
2022-12-22T14:31:53.302Z,11.17
2022-12-22T14:34:56.344Z,11.15
2022-12-22T14:38:20.706Z,11.24
2022-12-22T14:41:46.197Z,11.05
2022-12-22T14:44:49.838Z,11.10
2022-12-22T14:47:52.771Z,11.07
2022-12-22T14:50:55.423Z,10.93
2022-12-22T14:54:03.146Z,10.85
2022-12-22T14:57:44.146Z,10.95
2022-12-22T15:01:23.209Z,10.91
2022-12-22T15:04:24.998Z,10.83
2022-12-22T15:10:48.348Z,10.99
2022-12-22T15:13:51.630Z,11.05
2022-12-22T15:16:57.830Z,11.12
2022-12-22T15:20:00.044Z,10.94
2022-12-22T15:23:01.892Z,10.72
2022-12-22T15:26:03.577Z,10.91
2022-12-22T15:29:06.523Z,10.91
2022-12-22T15:32:12.135Z,10.96
2022-12-22T15:35:19.767Z,10.81
2022-12-22T15:38:23.798Z,10.84
2022-12-22T15:41:25.526Z,10.87
2022-12-22T15:44:33.589Z,10.75
2022-12-22T15:47:41.286Z,10.72
2022-12-22T15:50:44.234Z,10.59
2022-12-22T15:53:46.273Z,10.55
2022-12-22T15:56:51.447Z,10.56
2022-12-22T15:59:53.111Z,10.59
2022-12-22T16:02:56.304Z,10.54
2022-12-22T16:05:58.624Z,10.42
2022-12-22T16:09:00.568Z,10.34
2022-12-22T16:12:02.222Z,10.24
2022-12-22T16:15:05.226Z,10.13
2022-12-22T16:18:12.365Z,10.06
2022-12-22T16:21:17.294Z,10.06
2022-12-22T16:24:22.642Z,10.03
2022-12-22T16:27:24.615Z,9.99
2022-12-22T16:30:29.259Z,9.96
2022-12-22T16:33:32.312Z,9.97
2022-12-22T16:36:34.000Z,9.95
2022-12-22T16:39:35.817Z,9.98
2022-12-22T16:45:59.360Z,9.94
2022-12-22T16:49:02.517Z,9.87
2022-12-22T16:52:04.527Z,9.82
2022-12-22T16:55:13.621Z,9.82
2022-12-22T16:58:15.255Z,9.77
2022-12-22T17:01:27.347Z,9.74
2022-12-22T17:04:32.038Z,9.71
2022-12-22T17:07:33.957Z,9.68
2022-12-22T17:10:35.831Z,9.72
2022-12-22T17:13:38.492Z,9.79
2022-12-22T17:16:40.183Z,9.81
2022-12-22T17:19:43.457Z,9.82
2022-12-22T17:22:48.182Z,9.82
2022-12-22T17:25:50.135Z,9.99
2022-12-22T17:28:53.125Z,10.04
2022-12-22T17:31:56.633Z,10.08
2022-12-22T17:35:00.078Z,10.18
2022-12-22T17:38:01.769Z,10.15
2022-12-22T17:41:03.510Z,10.14
2022-12-22T17:44:05.385Z,10.13
2022-12-22T17:47:07.131Z,10.11
2022-12-22T17:50:13.372Z,10.10
2022-12-22T17:53:19.050Z,10.10
2022-12-22T17:56:22.528Z,10.18
2022-12-22T17:59:24.224Z,10.18
2022-12-22T18:02:26.438Z,10.21
2022-12-22T18:05:36.827Z,10.22
2022-12-22T18:08:38.726Z,10.21
2022-12-22T18:11:45.718Z,10.19
2022-12-22T18:14:48.306Z,10.19
2022-12-22T18:17:50.307Z,10.20
2022-12-22T18:21:06.370Z,10.17
2022-12-22T18:24:15.965Z,10.19
2022-12-22T18:27:19.032Z,10.21
2022-12-22T18:30:24.320Z,10.15
2022-12-22T18:33:25.961Z,10.19
2022-12-22T18:36:31.582Z,10.19
2022-12-22T18:39:35.295Z,10.23
2022-12-22T18:42:37.002Z,10.21
2022-12-22T18:45:38.748Z,10.23
2022-12-22T18:48:40.537Z,10.24
2022-12-22T18:51:44.734Z,10.27
2022-12-22T18:54:47.123Z,10.27
2022-12-22T18:57:52.673Z,10.24
2022-12-22T19:00:55.853Z,10.20
2022-12-22T19:03:58.802Z,10.24
2022-12-22T19:07:01.830Z,10.16
2022-12-22T19:10:04.033Z,10.19
2022-12-22T19:13:08.243Z,10.20
2022-12-22T19:16:13.856Z,10.20
2022-12-22T19:19:18.310Z,10.16
2022-12-22T19:22:21.359Z,10.12
2022-12-22T19:25:27.427Z,10.09
2022-12-22T19:28:34.772Z,10.06
2022-12-22T19:31:37.916Z,10.04
2022-12-22T19:34:39.781Z,10.02
2022-12-22T19:37:42.908Z,9.98
2022-12-22T19:40:44.678Z,9.98
2022-12-22T19:43:46.326Z,9.95
2022-12-22T19:46:48.371Z,9.92
2022-12-22T19:49:50.234Z,9.87
2022-12-22T19:52:54.710Z,9.85
2022-12-22T19:55:57.247Z,9.79
2022-12-22T19:59:00.481Z,9.71
2022-12-22T20:02:02.695Z,9.64
2022-12-22T20:05:11.651Z,9.63
2022-12-22T20:08:18.275Z,9.61
2022-12-22T20:11:20.392Z,9.61
2022-12-22T20:14:22.160Z,9.60
2022-12-22T20:17:24.107Z,9.61
2022-12-22T20:20:31.668Z,9.60
2022-12-22T20:23:37.244Z,9.62
2022-12-22T20:26:38.968Z,9.61
2022-12-22T20:29:40.639Z,9.61
2022-12-22T20:32:42.391Z,9.62
2022-12-22T20:35:45.746Z,9.63
2022-12-22T20:38:50.172Z,9.66
2022-12-22T20:41:53.691Z,9.69
2022-12-22T20:45:03.225Z,9.66
2022-12-22T20:48:06.633Z,9.67
2022-12-22T20:51:13.312Z,9.66
2022-12-22T20:54:17.916Z,9.68
2022-12-22T20:57:22.859Z,9.69
2022-12-22T21:00:26.531Z,9.72
2022-12-22T21:03:29.015Z,9.72
2022-12-22T21:06:34.799Z,9.72
2022-12-22T21:09:39.403Z,9.73
2022-12-22T21:12:41.334Z,9.73
2022-12-22T21:15:45.575Z,9.75
2022-12-22T21:18:47.982Z,9.76
2022-12-22T21:21:49.849Z,9.76
2022-12-22T21:24:52.921Z,9.80
2022-12-22T21:27:56.008Z,9.78
2022-12-22T21:30:57.865Z,9.79
2022-12-22T21:33:59.812Z,9.79
2022-12-22T21:37:02.946Z,9.77
2022-12-22T21:40:15.215Z,9.79
2022-12-22T21:43:17.300Z,9.78
2022-12-22T21:46:19.015Z,9.80
2022-12-22T21:49:22.738Z,9.81
2022-12-22T21:52:24.692Z,9.84
2022-12-22T21:55:30.644Z,9.84
2022-12-22T21:58:32.375Z,9.86
2022-12-22T22:01:34.227Z,9.86
2022-12-22T22:04:35.947Z,9.87
2022-12-22T22:07:37.716Z,9.85
2022-12-22T22:10:42.354Z,9.85
2022-12-22T22:13:44.034Z,9.86
2022-12-22T22:16:45.706Z,9.84
2022-12-22T22:19:47.445Z,9.86
2022-12-22T22:22:50.891Z,9.84
2022-12-22T22:25:58.245Z,9.86
2022-12-22T22:29:00.095Z,9.82
2022-12-22T22:32:01.940Z,9.81
2022-12-22T22:35:05.386Z,9.79
2022-12-22T22:38:07.039Z,9.76
2022-12-22T22:41:10.144Z,9.75
2022-12-22T22:44:12.136Z,9.76
2022-12-22T22:47:13.819Z,9.78
2022-12-22T22:50:15.673Z,9.78
2022-12-22T22:53:17.581Z,9.79
2022-12-22T22:56:21.135Z,9.76
2022-12-22T22:59:23.430Z,9.74
2022-12-22T23:02:25.417Z,9.73
2022-12-22T23:05:27.418Z,9.71
2022-12-22T23:08:30.523Z,9.71
2022-12-22T23:11:33.677Z,9.68
2022-12-22T23:14:35.558Z,9.66
2022-12-22T23:17:37.350Z,9.66
2022-12-22T23:20:44.257Z,9.66
2022-12-22T23:23:46.111Z,9.65
2022-12-22T23:26:49.293Z,9.68
2022-12-22T23:29:51.060Z,9.69
2022-12-22T23:32:52.711Z,9.69
2022-12-22T23:35:54.603Z,9.70
2022-12-22T23:38:56.330Z,9.71
2022-12-22T23:41:59.509Z,9.70
2022-12-22T23:45:01.202Z,9.69
2022-12-22T23:48:02.897Z,9.68
2022-12-22T23:51:05.553Z,9.68
2022-12-22T23:54:07.386Z,9.67
2022-12-22T23:57:10.478Z,9.69
